Weather at Bella Bella (Campbell Island) Airport

Public forecast

Using degrees Celsius for public forecast. Weather courtesy of forecast.io.

Current aviation weather report (METAR) for Bella Bella (Campbell Island) Airport

2024/05/28 22:37 (retrieved 6 minutes ago)

CBBC 282237Z AUTO VRB06KT 9SM BKN055 BKN071 12/07 A3004 RMK ICE MISG SLP175

Aviation forecast (TAF) for Bella Bella (Campbell Island) Airport

2024/05/28 19:00 (retrieved 4 hours ago)

TAF CBBC 281840Z 2819/2905 VRB03KT P6SM BKN040 TEMPO 2819/2905 P6SM -SHRA BKN020 BECMG 2820/2822 23008KT RMK FCST BASED ON AUTO OBS NXT FCST BY 290100Z